Time;durP1;ratioP1;P1;durP2;ratioP2;P2;SDS_P1;SDS_P2;PMS_P1;PMS_P2;Temp;Humidity;BMP_temperature;BMP_pressure;BME280_temperature;BME280_humidity;BME280_pressure;Samples;Min_cycle;Max_cycle;Signal;HPM_P1;HPM_P2
2022/09/24 00:01:25;;;;;;;20.35;11.52;;;;;;;12.48;65.47;100688.38;5052720;28;20357;-73
2022/09/24 00:03:56;;;;;;;18.90;11.63;;;;;;;12.51;65.31;100686.53;5052010;28;20461;-73
2022/09/24 00:06:22;;;;;;;18.13;11.40;;;;;;;12.49;65.17;100685.72;5051958;28;20472;-74
2022/09/24 00:08:50;;;;;;;19.80;11.80;;;;;;;12.51;65.08;100683.03;5045993;28;20435;-74
2022/09/24 00:11:18;;;;;;;17.13;10.75;;;;;;;12.46;65.40;100677.88;5051359;28;20112;-75
2022/09/24 00:13:44;;;;;;;16.52;10.50;;;;;;;12.40;65.53;100672.75;5048840;28;20469;-73
2022/09/24 00:16:12;;;;;;;17.70;11.15;;;;;;;12.38;65.31;100673.72;5055920;28;20167;-75
2022/09/24 00:18:38;;;;;;;19.58;11.40;;;;;;;12.38;65.39;100679.84;5055120;28;20108;-75
2022/09/24 00:21:20;;;;;;;14.60;10.00;;;;;;;12.36;65.26;100668.44;5054365;28;20037;-75
2022/09/24 00:23:56;;;;;;;17.15;10.23;;;;;;;12.36;65.18;100675.50;5053312;28;20091;-73
2022/09/24 00:29:08;;;;;;;15.20;10.40;;;;;;;12.39;65.04;100680.69;5056566;28;20116;-74
2022/09/24 00:31:34;;;;;;;16.83;9.85;;;;;;;12.33;64.92;100672.06;5051999;28;20032;-75
2022/09/24 00:34:00;;;;;;;13.75;9.23;;;;;;;12.28;65.07;100665.13;5055665;28;20040;-72
2022/09/24 00:36:26;;;;;;;16.45;10.30;;;;;;;12.25;64.99;100670.50;5053447;28;20121;-74
2022/09/24 00:38:54;;;;;;;13.43;8.82;;;;;;;12.26;65.01;100666.97;5054444;28;20120;-73
2022/09/24 00:41:22;;;;;;;18.27;12.10;;;;;;;12.25;64.87;100665.25;5052234;28;20361;-74
2022/09/24 00:43:48;;;;;;;17.95;10.65;;;;;;;12.21;64.88;100659.19;5051736;28;20465;-74
2022/09/24 00:46:16;;;;;;;14.13;9.63;;;;;;;12.18;64.82;100664.50;5049850;28;20033;-75
2022/09/24 00:48:43;;;;;;;15.52;9.73;;;;;;;12.13;64.75;100647.06;5053440;28;20090;-73
2022/09/24 00:51:13;;;;;;;17.25;10.77;;;;;;;12.09;64.72;100654.19;5046632;28;20045;-75
2022/09/24 00:53:40;;;;;;;13.52;9.07;;;;;;;12.07;64.71;100645.44;5049840;28;20032;-75
2022/09/24 00:56:09;;;;;;;15.77;9.32;;;;;;;12.07;64.82;100651.59;5054620;28;20033;-74
2022/09/24 00:58:35;;;;;;;14.43;9.05;;;;;;;12.02;64.98;100655.25;5055535;28;20029;-74
2022/09/24 01:01:04;;;;;;;14.23;8.43;;;;;;;11.97;65.01;100655.34;5053299;28;20036;-75
2022/09/24 01:03:32;;;;;;;12.68;8.43;;;;;;;11.99;64.89;100653.53;5055440;28;20365;-73
2022/09/24 01:05:57;;;;;;;14.38;9.40;;;;;;;12.01;64.87;100651.75;5052900;28;20495;-74
2022/09/24 01:08:23;;;;;;;14.98;9.27;;;;;;;12.03;64.83;100649.06;5054025;28;20029;-75
2022/09/24 01:11:30;;;;;;;14.95;9.98;;;;;;;12.02;64.13;100648.19;5047741;28;20044;-75
2022/09/24 01:14:13;;;;;;;15.15;9.75;;;;;;;11.96;64.43;100640.44;5038261;28;20055;-75
2022/09/24 01:16:57;;;;;;;17.13;8.65;;;;;;;11.91;64.55;100647.56;5055222;28;20427;-74
2022/09/24 01:19:50;;;;;;;12.63;7.65;;;;;;;11.87;64.58;100642.41;5048961;28;20043;-75
2022/09/24 01:22:36;;;;;;;11.70;6.97;;;;;;;11.81;64.39;100638.13;5048961;28;20476;-74
2022/09/24 01:25:39;;;;;;;12.93;7.35;;;;;;;11.89;64.27;100632.69;5046253;28;20056;-75
2022/09/24 01:28:39;;;;;;;12.15;8.77;;;;;;;11.89;64.04;100625.69;5052674;28;20041;-71
2022/09/24 01:31:29;;;;;;;15.05;8.18;;;;;;;11.94;63.93;100618.53;5052802;28;20064;-75
2022/09/24 01:33:58;;;;;;;13.13;7.85;;;;;;;11.88;64.19;100628.34;5054848;28;20074;-74
2022/09/24 01:36:26;;;;;;;10.45;7.22;;;;;;;11.89;64.09;100619.53;5054927;28;20457;-73
2022/09/24 01:38:54;;;;;;;11.90;7.90;;;;;;;11.89;64.11;100625.69;5051261;28;20047;-74
2022/09/24 01:41:21;;;;;;;11.90;8.10;;;;;;;11.92;63.95;100619.47;5055402;28;20367;-73
2022/09/24 01:43:47;;;;;;;17.00;10.13;;;;;;;11.92;63.90;100620.34;5053443;28;20032;-73
2022/09/24 01:46:16;;;;;;;12.23;8.02;;;;;;;11.90;63.94;100613.38;5050790;28;20068;-74
2022/09/24 01:48:41;;;;;;;12.70;8.52;;;;;;;11.89;64.01;100616.91;5053237;28;20029;-73
2022/09/24 01:51:13;;;;;;;14.35;9.10;;;;;;;11.86;63.85;100615.22;5048013;28;20037;-75
2022/09/24 01:53:56;;;;;;;11.90;8.45;;;;;;;11.85;63.72;100621.41;5042969;28;20139;-75
2022/09/24 01:56:31;;;;;;;12.10;7.90;;;;;;;11.80;63.84;100615.31;5051274;28;20064;-75
2022/09/24 01:59:17;;;;;;;12.27;8.25;;;;;;;11.69;64.05;100617.31;5052055;28;20044;-74
2022/09/24 02:01:57;;;;;;;12.68;8.40;;;;;;;11.57;64.45;100619.34;5050263;28;20029;-75
2022/09/24 02:04:27;;;;;;;11.93;8.05;;;;;;;11.55;64.72;100613.25;5049339;28;20067;-76
2022/09/24 02:06:55;;;;;;;10.60;7.07;;;;;;;11.59;64.57;100616.69;5052758;28;20072;-75
2022/09/24 02:09:39;;;;;;;14.25;8.65;;;;;;;11.60;64.22;100616.63;5043310;28;20021;-74
2022/09/24 02:12:28;;;;;;;16.17;11.00;;;;;;;11.54;64.21;100622.03;5043161;28;20036;-73
2022/09/24 02:14:59;;;;;;;14.85;10.18;;;;;;;11.50;64.30;100624.78;5035340;28;20208;-73
2022/09/24 02:17:28;;;;;;;13.70;8.45;;;;;;;11.48;64.42;100619.53;5040752;28;20083;-73
2022/09/24 02:19:57;;;;;;;13.18;7.78;;;;;;;11.53;64.27;100615.06;5048785;28;20112;-72
2022/09/24 02:22:24;;;;;;;13.60;9.38;;;;;;;11.58;64.15;100612.31;5052692;28;20036;-74
2022/09/24 02:24:54;;;;;;;14.05;9.35;;;;;;;11.53;64.11;100607.16;5045845;28;20049;-74
2022/09/24 02:27:20;;;;;;;13.95;9.02;;;;;;;11.56;64.08;100611.47;5043308;28;20043;-72
2022/09/24 02:29:46;;;;;;;11.95;7.60;;;;;;;11.55;64.02;100615.88;5050403;28;20530;-72
2022/09/24 02:32:16;;;;;;;11.80;8.05;;;;;;;11.59;63.95;100614.91;5052848;28;20043;-71
2022/09/24 02:34:46;;;;;;;12.52;8.15;;;;;;;11.63;63.81;100610.44;5052544;28;20084;-71
2022/09/24 02:37:13;;;;;;;13.68;8.82;;;;;;;11.67;63.53;100605.97;5053651;28;20041;-72
2022/09/24 02:39:40;;;;;;;12.27;8.57;;;;;;;11.69;63.28;100605.06;5049843;28;20175;-71
2022/09/24 02:42:08;;;;;;;13.05;7.47;;;;;;;11.69;63.26;100604.16;5041921;28;20057;-71
2022/09/24 02:44:35;;;;;;;14.40;8.90;;;;;;;11.69;63.23;100612.06;5049869;28;20037;-71
2022/09/24 02:47:00;;;;;;;11.50;7.82;;;;;;;11.66;63.22;100601.63;5050664;28;20435;-73
2022/09/24 02:49:26;;;;;;;16.40;8.38;;;;;;;11.67;63.31;100611.25;5054196;28;20036;-72
2022/09/24 02:51:51;;;;;;;10.82;7.82;;;;;;;11.67;63.17;100611.25;5051855;28;20424;-72
2022/09/24 02:54:17;;;;;;;10.55;7.40;;;;;;;11.63;63.19;100607.81;5047571;28;20409;-72
2022/09/24 02:56:42;;;;;;;12.32;8.35;;;;;;;11.63;63.24;100607.81;5052750;28;20090;-71
2022/09/24 02:59:08;;;;;;;15.10;8.85;;;;;;;11.64;63.11;100609.53;5052114;28;20037;-74
2022/09/24 03:01:34;;;;;;;11.50;7.43;;;;;;;11.64;63.19;100608.66;5051277;28;20052;-73
2022/09/24 03:04:00;;;;;;;11.02;6.45;;;;;;;11.67;63.07;100603.34;5053409;28;20040;-73
2022/09/24 03:06:26;;;;;;;11.63;7.72;;;;;;;11.61;63.07;100601.72;5050272;28;20037;-73
2022/09/24 03:08:52;;;;;;;14.13;8.43;;;;;;;11.63;63.14;100599.06;5053491;28;20041;-72
2022/09/24 03:11:20;;;;;;;11.93;6.93;;;;;;;11.60;63.10;100600.84;5053486;28;20116;-72
2022/09/24 03:13:46;;;;;;;13.93;7.68;;;;;;;11.51;63.27;100594.94;5053377;28;20511;-71
2022/09/24 03:16:12;;;;;;;12.98;8.63;;;;;;;11.49;63.42;100597.59;5050711;28;20473;-73
2022/09/24 03:18:37;;;;;;;9.88;7.10;;;;;;;11.46;63.34;100588.91;5054534;28;20040;-73
2022/09/24 03:21:07;;;;;;;11.45;7.63;;;;;;;11.44;63.35;100595.94;5051934;28;20088;-73
2022/09/24 03:23:33;;;;;;;13.02;8.35;;;;;;;11.37;63.51;100595.25;5053165;28;20086;-72
2022/09/24 03:25:59;;;;;;;12.50;8.07;;;;;;;11.34;63.60;100590.03;5049332;28;20041;-74
2022/09/24 03:28:25;;;;;;;15.23;8.20;;;;;;;11.29;63.63;100594.50;5052988;28;20039;-72
2022/09/24 03:31:00;;;;;;;12.45;7.75;;;;;;;11.28;63.70;100600.69;5052706;28;20040;-72
2022/09/24 03:33:40;;;;;;;12.95;8.15;;;;;;;11.29;63.55;100597.13;5051420;28;20033;-73
2022/09/24 03:36:08;;;;;;;12.63;7.72;;;;;;;11.34;63.55;100600.56;5049545;28;20048;-72
2022/09/24 03:38:35;;;;;;;12.70;8.38;;;;;;;11.35;63.28;100586.50;5052088;28;20032;-73
2022/09/24 03:41:01;;;;;;;13.40;8.27;;;;;;;11.38;63.16;100589.06;5052885;28;20037;-72
2022/09/24 03:43:27;;;;;;;14.10;8.40;;;;;;;11.36;63.02;100593.50;5052678;28;20045;-73
2022/09/24 03:45:54;;;;;;;14.15;9.20;;;;;;;11.32;62.86;100591.81;5051901;28;20377;-72
2022/09/24 03:48:21;;;;;;;11.98;7.68;;;;;;;11.27;63.02;100596.31;5048179;28;20056;-72
2022/09/24 03:50:47;;;;;;;13.30;9.23;;;;;;;11.17;63.42;100594.75;5048967;28;20071;-69
2022/09/24 03:53:13;;;;;;;13.20;7.95;;;;;;;11.46;62.80;100591.53;5051576;28;20124;-74
2022/09/24 03:55:43;;;;;;;11.32;7.88;;;;;;;11.48;62.38;100585.31;5051832;28;20041;-71
2022/09/24 03:58:09;;;;;;;10.90;7.63;;;;;;;11.47;62.28;100588.00;5047171;28;20132;-72
2022/09/24 04:00:35;;;;;;;13.82;10.00;;;;;;;11.39;62.39;100585.53;5050410;28;20040;-73
2022/09/24 04:03:00;;;;;;;11.70;8.63;;;;;;;11.38;62.51;100590.84;5037660;28;20037;-74
2022/09/24 04:05:26;;;;;;;16.80;9.13;;;;;;;11.31;62.59;100588.31;5044545;28;20033;-75
2022/09/24 04:07:51;;;;;;;18.08;10.40;;;;;;;11.09;62.95;100581.78;5052333;28;20124;-74
2022/09/24 04:10:16;;;;;;;16.25;11.05;;;;;;;10.64;64.33;100591.44;5052602;28;20036;-74
2022/09/24 04:12:44;;;;;;;14.52;8.68;;;;;;;10.65;64.22;100593.16;5049484;28;20121;-74
2022/09/24 04:15:10;;;;;;;14.77;9.63;;;;;;;10.67;64.42;100597.50;5046644;28;20037;-72
2022/09/24 04:17:35;;;;;;;13.23;10.30;;;;;;;10.75;64.14;100589.47;5051011;28;20037;-73
2022/09/24 04:20:01;;;;;;;15.57;10.18;;;;;;;10.63;64.25;100589.72;5049615;28;20115;-70
2022/09/24 04:22:27;;;;;;;15.50;10.45;;;;;;;10.53;64.58;100589.88;5052381;28;20036;-72
2022/09/24 04:24:54;;;;;;;16.17;9.77;;;;;;;10.53;64.63;100589.88;5048343;28;20044;-73
2022/09/24 04:27:20;;;;;;;13.30;9.45;;;;;;;10.59;64.55;100584.50;5050545;28;20458;-72
2022/09/24 04:29:45;;;;;;;14.27;9.52;;;;;;;10.62;64.67;100588.84;5052139;28;20116;-70
2022/09/24 04:32:11;;;;;;;18.17;12.63;;;;;;;10.59;64.18;100584.50;5051642;28;20519;-73
2022/09/24 04:34:36;;;;;;;12.32;8.82;;;;;;;10.52;64.14;100588.13;5051093;28;20029;-71
2022/09/24 04:37:02;;;;;;;15.23;9.93;;;;;;;10.51;64.42;100583.78;5052302;28;20450;-73
2022/09/24 04:39:27;;;;;;;16.58;10.35;;;;;;;10.55;64.41;100580.19;5051942;28;20045;-73
2022/09/24 04:41:53;;;;;;;13.00;9.27;;;;;;;10.61;64.25;100584.47;5049448;28;20736;-72
2022/09/24 04:44:19;;;;;;;12.50;8.27;;;;;;;10.63;63.95;100580.06;5050366;28;20037;-74
2022/09/24 04:46:44;;;;;;;21.75;9.90;;;;;;;10.58;64.32;100582.78;5051623;28;20045;-74
2022/09/24 04:49:10;;;;;;;13.20;9.60;;;;;;;10.59;64.35;100578.38;5047230;28;20028;-71
2022/09/24 04:51:36;;;;;;;14.77;9.70;;;;;;;10.59;64.16;100581.00;5050134;28;20512;-70
2022/09/24 04:54:01;;;;;;;16.33;10.43;;;;;;;10.52;64.41;100582.88;5046601;28;20060;-71
2022/09/24 04:56:27;;;;;;;14.05;9.98;;;;;;;10.65;64.08;100580.03;5050573;28;20086;-73
2022/09/24 04:58:53;;;;;;;12.95;10.27;;;;;;;10.69;63.73;100576.44;5051116;28;20049;-73
2022/09/24 05:01:19;;;;;;;14.93;10.68;;;;;;;10.80;63.72;100585.00;5056782;28;20441;-74
2022/09/24 05:03:44;;;;;;;28.40;18.17;;;;;;;10.88;63.46;100569.06;5055294;28;20106;-73
2022/09/24 05:06:10;;;;;;;21.15;13.93;;;;;;;10.96;63.22;100573.28;5054103;28;20469;-74
2022/09/24 05:08:35;;;;;;;21.02;13.27;;;;;;;11.07;62.86;100575.69;5054657;28;20043;-74
2022/09/24 05:11:01;;;;;;;17.02;11.43;;;;;;;11.07;62.79;100579.19;5056759;28;20033;-74
2022/09/24 05:13:27;;;;;;;17.17;10.55;;;;;;;11.16;62.57;100575.50;5049569;28;20079;-74
2022/09/24 05:15:53;;;;;;;15.07;9.98;;;;;;;11.27;62.29;100573.50;5036920;28;20069;-72
2022/09/24 05:18:18;;;;;;;16.83;11.18;;;;;;;11.35;62.13;100576.84;5040950;28;20037;-76
2022/09/24 05:20:44;;;;;;;18.50;12.10;;;;;;;11.43;62.12;100579.31;5053365;28;20039;-73
2022/09/24 05:23:09;;;;;;;16.52;11.18;;;;;;;11.50;61.83;100575.66;5053544;28;20451;-75
2022/09/24 05:27:07;;;;;;;16.75;10.50;;;;;;;11.62;61.75;100578.91;5044139;28;20030;-74
2022/09/24 05:28:20;;;;;;;16.15;10.75;;;;;;;11.71;61.28;100579.56;5036206;28;20096;-74
2022/09/24 05:30:46;;;;;;;15.15;11.07;;;;;;;11.80;61.27;100567.94;5051141;28;20033;-75
2022/09/24 05:33:12;;;;;;;17.27;10.93;;;;;;;11.82;61.18;100571.41;5054374;28;20385;-73
2022/09/24 05:35:37;;;;;;;16.00;10.18;;;;;;;11.99;60.83;100568.41;5055077;28;20040;-72
2022/09/24 05:38:02;;;;;;;17.23;10.55;;;;;;;12.14;60.47;100572.44;5053625;28;20109;-74
2022/09/24 05:43:12;;;;;;;13.23;9.63;;;;;;;12.34;60.10;100570.16;5055601;28;20121;-73
2022/09/24 05:45:38;;;;;;;18.10;10.38;;;;;;;12.52;59.80;100568.78;5055864;28;20033;-74
2022/09/24 05:48:04;;;;;;;13.93;9.40;;;;;;;12.75;59.36;100570.81;5055538;28;20090;-74
2022/09/24 05:50:31;;;;;;;17.17;10.52;;;;;;;12.94;58.88;100566.75;5045252;28;20021;-73
2022/09/24 05:52:57;;;;;;;19.27;12.38;;;;;;;13.16;58.46;100572.25;5040345;28;20041;-72
2022/09/24 05:55:22;;;;;;;19.48;11.43;;;;;;;13.42;57.82;100573.31;5047815;28;20472;-68
2022/09/24 05:57:48;;;;;;;13.50;9.73;;;;;;;13.60;57.50;100572.72;5054498;28;20369;-70
2022/09/24 06:00:13;;;;;;;20.80;13.93;;;;;;;13.76;57.32;100568.72;5048474;28;20107;-70
2022/09/24 06:02:39;;;;;;;19.08;13.27;;;;;;;13.89;57.24;100568.34;5053341;28;20112;-70
2022/09/24 06:05:05;;;;;;;20.10;14.13;;;;;;;14.07;56.94;100567.72;5054025;28;20060;-72
2022/09/24 06:07:30;;;;;;;17.55;11.75;;;;;;;14.23;56.77;100568.06;5048380;28;20151;-69
2022/09/24 06:09:58;;;;;;;17.40;11.63;;;;;;;14.42;56.45;100574.47;5050056;28;20490;-68
2022/09/24 06:12:23;;;;;;;14.43;10.48;;;;;;;14.60;56.08;100572.13;5043303;28;20035;-70
2022/09/24 06:14:49;;;;;;;17.33;11.02;;;;;;;14.74;55.81;100567.22;5052087;28;20036;-72
2022/09/24 06:17:14;;;;;;;17.42;11.80;;;;;;;14.92;55.57;100566.56;5051828;28;20041;-71
2022/09/24 06:19:39;;;;;;;18.85;13.25;;;;;;;15.12;55.19;100571.13;5046723;28;20122;-71
2022/09/24 06:22:05;;;;;;;16.67;11.48;;;;;;;15.26;55.04;100560.84;5050763;28;20041;-71
2022/09/24 06:24:30;;;;;;;16.20;10.77;;;;;;;15.41;54.84;100567.34;5044332;28;20037;-69
2022/09/24 06:26:57;;;;;;;18.25;11.95;;;;;;;15.53;54.63;100569.53;5049181;28;20065;-73
2022/09/24 06:29:22;;;;;;;20.85;11.60;;;;;;;15.55;54.57;100563.28;5049999;28;20033;-70
2022/09/24 06:31:47;;;;;;;16.65;11.23;;;;;;;15.69;54.46;100555.72;5048221;28;20033;-71
2022/09/24 06:34:14;;;;;;;16.23;11.23;;;;;;;15.83;54.21;100560.44;5040551;28;20037;-70
2022/09/24 06:36:39;;;;;;;17.38;11.00;;;;;;;15.89;54.28;100558.41;5051117;28;20386;-71
2022/09/24 06:39:06;;;;;;;14.50;9.95;;;;;;;15.90;54.61;100551.31;5048814;28;20048;-70
2022/09/24 06:41:32;;;;;;;16.20;10.63;;;;;;;15.92;54.51;100553.00;5054319;28;20057;-69
2022/09/24 06:43:57;;;;;;;17.25;11.82;;;;;;;15.96;54.52;100554.59;5053022;28;20033;-70
2022/09/24 06:46:24;;;;;;;14.90;10.15;;;;;;;16.07;54.37;100554.13;5053325;28;20036;-70
2022/09/24 06:48:50;;;;;;;18.63;12.68;;;;;;;16.16;54.40;100560.88;5053727;28;20431;-70
2022/09/24 06:51:16;;;;;;;20.83;13.70;;;;;;;16.24;54.32;100549.00;5055116;28;20453;-71
2022/09/24 06:53:41;;;;;;;20.98;14.65;;;;;;;16.31;54.48;100549.59;5052310;28;20037;-72
2022/09/24 06:56:06;;;;;;;19.45;13.70;;;;;;;16.43;54.35;100557.00;5053866;28;20111;-70
2022/09/24 06:58:32;;;;;;;24.88;15.30;;;;;;;16.49;54.36;100548.81;5052987;28;20078;-71
2022/09/24 07:01:03;;;;;;;24.95;16.33;;;;;;;16.62;54.22;100556.22;5052854;28;20036;-70
2022/09/24 07:03:30;;;;;;;21.08;15.32;;;;;;;16.77;54.13;100552.94;5058124;28;20105;-72
2022/09/24 07:06:00;;;;;;;23.70;15.35;;;;;;;16.89;54.08;100551.53;5035041;28;20038;-70
2022/09/24 07:08:26;;;;;;;19.42;13.18;;;;;;;17.00;54.14;100559.88;5034483;28;20492;-70
2022/09/24 07:10:51;;;;;;;23.30;15.90;;;;;;;17.15;53.96;100558.28;5044897;28;20041;-70
2022/09/24 07:13:17;;;;;;;22.10;14.05;;;;;;;17.32;53.73;100562.84;5034344;28;20034;-70
2022/09/24 07:15:44;;;;;;;20.65;12.43;;;;;;;17.47;53.39;100565.66;5041321;28;20094;-70
2022/09/24 07:18:10;;;;;;;16.98;11.88;;;;;;;17.65;52.77;100558.56;5054023;28;20033;-70
2022/09/24 07:20:36;;;;;;;16.73;10.85;;;;;;;17.76;52.49;100554.59;5043691;28;20476;-69
2022/09/24 07:23:03;;;;;;;16.88;11.32;;;;;;;18.01;51.95;100565.72;5034406;28;20044;-69
2022/09/24 07:25:29;;;;;;;22.63;13.00;;;;;;;18.21;51.73;100562.06;5033802;28;20033;-69
2022/09/24 07:27:54;;;;;;;17.85;11.18;;;;;;;18.39;51.16;100563.81;5034047;28;20033;-68
2022/09/24 07:30:19;;;;;;;19.33;11.10;;;;;;;18.60;51.12;100568.97;5044091;28;20035;-69
2022/09/24 07:32:45;;;;;;;17.55;11.65;;;;;;;18.78;50.39;100567.16;5042422;28;20530;-70
2022/09/24 07:35:10;;;;;;;17.33;11.35;;;;;;;18.97;50.23;100559.06;5058887;28;20037;-69
2022/09/24 07:37:36;;;;;;;14.48;9.23;;;;;;;19.06;49.90;100550.56;5056176;28;20063;-71
2022/09/24 07:40:02;;;;;;;11.63;7.65;;;;;;;19.17;49.55;100561.50;5052884;28;20033;-70
2022/09/24 07:42:27;;;;;;;9.73;6.95;;;;;;;19.33;48.96;100549.06;5052063;28;20045;-69
2022/09/24 07:44:55;;;;;;;10.73;6.78;;;;;;;19.57;48.45;100556.63;5043621;28;20133;-69
2022/09/24 07:47:21;;;;;;;11.25;7.57;;;;;;;19.78;47.59;100558.09;5051577;28;20098;-69
2022/09/24 07:49:46;;;;;;;10.60;7.07;;;;;;;19.87;47.40;100559.41;5051347;28;20477;-68
2022/09/24 07:52:12;;;;;;;10.30;6.13;;;;;;;20.08;47.33;100566.16;5045916;28;20115;-71
2022/09/24 07:54:37;;;;;;;7.30;5.10;;;;;;;20.28;47.79;100557.00;5052405;28;20112;-72
2022/09/24 07:57:02;;;;;;;7.53;4.68;;;;;;;20.54;46.93;100562.59;5051386;28;20411;-70
2022/09/24 07:59:29;;;;;;;6.15;4.15;;;;;;;20.72;45.48;100557.97;5052381;28;20028;-72
2022/09/24 08:01:55;;;;;;;8.85;4.90;;;;;;;20.73;44.92;100559.69;5052339;28;20064;-72
2022/09/24 08:04:21;;;;;;;10.30;5.32;;;;;;;20.89;45.91;100561.31;5052829;28;20194;-71
2022/09/24 08:06:47;;;;;;;10.40;6.15;;;;;;;21.10;46.15;100558.25;5044982;28;20781;-67
2022/09/24 08:09:14;;;;;;;16.67;7.85;;;;;;;21.24;45.45;100563.59;5046206;28;20045;-71
2022/09/24 08:11:40;;;;;;;13.88;7.78;;;;;;;21.23;44.18;100564.56;5046448;28;20404;-72
2022/09/24 08:14:05;;;;;;;9.32;5.20;;;;;;;21.21;44.28;100561.13;5052648;28;20484;-72
2022/09/24 08:16:31;;;;;;;10.90;6.22;;;;;;;21.07;44.40;100570.00;5052008;28;20041;-72
2022/09/24 08:18:56;;;;;;;6.40;4.57;;;;;;;21.07;44.45;100567.34;5052551;28;20047;-70
2022/09/24 08:21:22;;;;;;;9.93;5.70;;;;;;;21.07;44.35;100564.66;5052659;28;20488;-73
2022/09/24 08:23:47;;;;;;;6.15;4.30;;;;;;;21.08;44.01;100565.53;5052115;28;20045;-73
2022/09/24 08:26:12;;;;;;;5.70;3.85;;;;;;;21.11;44.26;100571.53;5052430;28;20041;-73
2022/09/24 08:28:40;;;;;;;6.93;4.32;;;;;;;21.19;44.36;100567.53;5052139;28;20033;-73
2022/09/24 08:31:08;;;;;;;7.25;4.63;;;;;;;21.24;43.59;100570.78;5045091;28;20056;-72
2022/09/24 08:33:35;;;;;;;10.35;5.38;;;;;;;21.27;43.54;100574.13;5055856;28;20443;-71
2022/09/24 08:36:03;;;;;;;8.77;6.30;;;;;;;21.35;43.94;100569.16;5055148;28;20025;-72
2022/09/24 08:38:28;;;;;;;10.30;5.30;;;;;;;21.38;44.32;100579.69;5056443;28;20111;-73
2022/09/24 08:41:12;;;;;;;10.73;5.07;;;;;;;21.38;44.41;100579.69;5055797;28;20124;-72
2022/09/24 08:47:21;;;;;;;9.02;4.63;;;;;;;21.47;45.86;100583.56;5056268;28;20033;-71
2022/09/24 08:47:21;;;;;;;8.05;4.70;;;;;;;21.51;43.73;100576.22;5055973;28;20059;-73
2022/09/24 08:49:51;;;;;;;6.50;4.32;;;;;;;21.53;43.78;100575.13;5056134;28;20468;-71
2022/09/24 08:52:45;;;;;;;6.28;4.07;;;;;;;21.55;41.19;100577.72;5050548;28;20036;-73
2022/09/24 08:55:36;;;;;;;6.40;4.25;;;;;;;21.50;41.54;100577.16;5049746;28;20036;-72
2022/09/24 08:58:36;;;;;;;5.18;3.08;;;;;;;21.58;40.52;100582.84;5056102;28;20499;-72
2022/09/24 09:01:10;;;;;;;5.78;3.08;;;;;;;21.76;42.10;100573.66;5055973;28;20036;-73
2022/09/24 09:03:57;;;;;;;7.78;4.25;;;;;;;21.90;41.07;100570.06;5055631;28;20478;-71
2022/09/24 09:06:50;;;;;;;11.85;6.18;;;;;;;22.10;39.42;100572.31;5056031;28;20025;-71
2022/09/24 09:09:37;;;;;;;6.53;3.95;;;;;;;22.18;40.72;100573.63;5049724;28;20536;-70
2022/09/24 09:12:09;;;;;;;5.95;3.05;;;;;;;22.33;42.09;100573.44;5055610;28;20494;-70
2022/09/24 09:14:42;;;;;;;;;;;;;;;22.34;39.98;100580.53;5056030;28;20032;-71
2022/09/24 09:17:41;;;;;;;5.07;2.47;;;;;;;22.37;43.69;100572.28;5055431;28;20284;-73
2022/09/24 09:20:13;;;;;;;4.07;2.70;;;;;;;22.53;41.99;100568.56;5047053;28;20033;-73
2022/09/24 09:22:43;;;;;;;;;;;;;;;22.64;42.32;100566.00;5054806;28;20487;-73
2022/09/24 09:25:19;;;;;;;3.88;2.67;;;;;;;22.65;39.36;100575.75;5055642;28;20360;-73
2022/09/24 09:27:59;;;;;;;10.35;2.90;;;;;;;22.62;41.50;100575.97;5055762;28;20041;-71
2022/09/24 09:30:25;;;;;;;4.13;2.92;;;;;;;22.69;40.67;100568.38;5052427;28;20511;-73
2022/09/24 09:33:07;;;;;;;3.83;2.47;;;;;;;22.60;38.10;100568.03;5055188;28;20048;-72
2022/09/24 09:35:50;;;;;;;6.22;3.50;;;;;;;22.63;41.80;100573.19;5055503;28;20028;-71
2022/09/24 09:38:29;;;;;;;6.70;3.17;;;;;;;22.65;38.17;100573.06;5049619;28;20114;-72
2022/09/24 09:41:17;;;;;;;5.47;2.42;;;;;;;22.78;40.39;100578.44;5051089;28;20045;-71
2022/09/24 09:43:43;;;;;;;4.43;2.50;;;;;;;22.79;40.48;100575.66;5053697;28;20037;-71
2022/09/24 09:46:23;;;;;;;6.50;2.60;;;;;;;22.81;38.43;100579.09;5055369;28;20048;-72
2022/09/24 09:49:07;;;;;;;3.35;2.28;;;;;;;22.75;36.95;100573.31;5054481;28;20051;-71
2022/09/24 09:51:39;;;;;;;3.92;2.47;;;;;;;22.83;40.09;100576.31;5047096;28;20040;-72
2022/09/24 09:54:04;;;;;;;4.33;2.13;;;;;;;22.84;40.02;100570.84;5054612;28;20029;-72
2022/09/24 09:56:34;;;;;;;4.75;2.35;;;;;;;22.73;40.70;100568.03;5055632;28;20526;-72
2022/09/24 09:59:16;;;;;;;4.55;2.63;;;;;;;22.69;38.68;100577.25;5055730;28;20408;-71
2022/09/24 10:01:45;;;;;;;3.58;2.20;;;;;;;22.58;40.00;100572.66;5054728;28;20040;-71
2022/09/24 10:04:27;;;;;;;5.53;3.38;;;;;;;22.60;40.45;100567.19;5054798;28;20491;-72
2022/09/24 10:07:06;;;;;;;4.60;2.85;;;;;;;22.57;40.63;100576.28;5053351;28;20059;-71
2022/09/24 10:09:32;;;;;;;4.43;2.65;;;;;;;22.57;40.19;100576.28;5046651;28;20029;-70
2022/09/24 10:12:20;;;;;;;5.10;2.53;;;;;;;22.60;40.35;100569.88;5046404;28;20072;-71
2022/09/24 10:15:25;;;;;;;4.75;2.50;;;;;;;22.58;37.61;100572.66;5053706;28;20068;-71
2022/09/24 10:17:53;;;;;;;4.38;2.70;;;;;;;22.60;40.21;100569.88;5042298;28;20075;-71
2022/09/24 10:20:26;;;;;;;4.25;2.72;;;;;;;22.59;38.42;100574.38;5055424;28;20086;-72
2022/09/24 10:23:05;;;;;;;6.10;2.40;;;;;;;22.54;38.17;100568.47;5055249;28;20036;-71
2022/09/24 10:25:35;;;;;;;5.78;2.50;;;;;;;22.75;40.69;100568.81;5055580;28;20117;-72
2022/09/24 10:30:55;;;;;;;6.30;2.00;;;;;;;23.05;39.35;100565.81;5055427;28;20035;-72
2022/09/24 10:33:21;;;;;;;4.30;2.10;;;;;;;23.15;39.73;100574.09;5055083;28;20036;-71
2022/09/24 10:35:47;;;;;;;3.30;1.98;;;;;;;23.27;38.78;100567.84;5054914;28;20052;-71
2022/09/24 10:38:22;;;;;;;2.33;1.70;;;;;;;23.28;39.01;100558.81;5054830;28;20037;-71
2022/09/24 10:40:47;;;;;;;4.22;1.75;;;;;;;23.27;38.89;100564.31;5054890;28;20041;-72
2022/09/24 10:43:18;;;;;;;4.10;1.60;;;;;;;23.48;38.62;100568.13;5054427;28;20462;-72
2022/09/24 10:45:49;;;;;;;4.35;2.00;;;;;;;23.59;38.27;100565.50;5054896;28;20025;-72
2022/09/24 10:48:32;;;;;;;2.25;1.48;;;;;;;23.39;37.57;100552.69;5054614;28;20111;-71
2022/09/24 10:51:27;;;;;;;5.78;1.73;;;;;;;23.28;37.24;100558.81;5054613;28;20044;-71
2022/09/24 10:54:05;;;;;;;2.97;1.60;;;;;;;23.16;38.28;100557.03;5054602;28;20043;-71
2022/09/24 10:56:39;;;;;;;3.95;1.50;;;;;;;23.05;36.11;100551.56;5053663;28;20111;-70
2022/09/24 10:59:35;;;;;;;2.90;1.95;;;;;;;22.93;37.85;100550.63;5054666;28;20050;-71
2022/09/24 11:02:12;;;;;;;2.60;1.60;;;;;;;22.81;37.68;100551.44;5054498;28;20086;-72
2022/09/24 11:04:38;;;;;;;2.83;1.48;;;;;;;22.63;38.33;100553.59;5054185;28;20091;-70
2022/09/24 11:07:31;;;;;;;2.88;1.70;;;;;;;22.38;35.50;100547.25;5054340;28;20138;-71
2022/09/24 11:10:01;;;;;;;3.67;2.08;;;;;;;22.22;36.49;100543.91;5054465;28;20104;-72
2022/09/24 11:12:38;;;;;;;4.22;2.55;;;;;;;22.21;36.84;100544.00;5054666;28;20484;-71
2022/09/24 11:15:49;;;;;;;4.07;2.00;;;;;;;22.15;37.60;100547.09;5054026;28;20107;-71
2022/09/24 11:18:30;;;;;;;5.82;3.75;;;;;;;22.08;35.99;100543.94;5039222;28;20045;-71
2022/09/24 11:21:12;;;;;;;3.97;2.58;;;;;;;22.04;36.19;100542.41;5053467;28;20048;-71
2022/09/24 11:23:51;;;;;;;4.07;2.03;;;;;;;21.97;36.15;100541.09;5053965;28;20039;-71
2022/09/24 11:26:42;;;;;;;2.85;1.70;;;;;;;22.02;36.16;100544.31;5054185;28;20468;-71
2022/09/24 11:29:19;;;;;;;3.65;2.20;;;;;;;22.03;33.12;100532.69;5052568;28;20123;-72
2022/09/24 11:31:47;;;;;;;3.72;2.40;;;;;;;22.28;35.29;100531.91;5052333;28;20065;-73
2022/09/24 11:34:22;;;;;;;3.95;2.60;;;;;;;22.29;34.12;100534.47;5053064;28;20490;-71
2022/09/24 11:37:17;;;;;;;3.50;1.75;;;;;;;22.33;33.22;100538.66;5052742;28;20415;-71
2022/09/24 11:39:51;;;;;;;3.63;1.67;;;;;;;22.42;35.39;100529.13;5044437;28;20116;-70
2022/09/24 11:42:19;;;;;;;4.60;2.30;;;;;;;22.46;34.08;100538.69;5052569;28;20044;-71